Time;durP1;ratioP1;P1;durP2;ratioP2;P2;SDS_P1;SDS_P2;PMS_P1;PMS_P2;Temp;Humidity;BMP_temperature;BMP_pressure;BME280_temperature;BME280_humidity;BME280_pressure;Samples;Min_cycle;Max_cycle;Signal;HPM_P1;HPM_P2
2021/12/23 00:00:40;;;;;;;28.65;21.95;;;-2.10;1.00;;;;;;5061863;28;20225;-82
2021/12/23 00:03:07;;;;;;;31.40;22.77;;;-2.10;1.00;;;;;;5061505;28;20241;-81
2021/12/23 00:05:34;;;;;;;32.83;19.92;;;-2.00;1.00;;;;;;5073222;28;20225;-82
2021/12/23 00:08:01;;;;;;;27.73;20.83;;;-2.10;1.00;;;;;;5061023;28;20225;-81
2021/12/23 00:10:28;;;;;;;33.40;20.45;;;-2.10;1.00;;;;;;5064473;28;20272;-80
2021/12/23 00:12:55;;;;;;;34.47;22.90;;;-2.10;1.00;;;;;;5053600;28;21022;-81
2021/12/23 00:15:30;;;;;;;34.35;24.08;;;-2.10;1.00;;;;;;5056509;28;20222;-83
2021/12/23 00:18:04;;;;;;;31.20;22.27;;;-2.10;1.00;;;;;;5048407;28;20239;-83
2021/12/23 00:23:26;;;;;;;30.05;20.42;;;-2.20;1.00;;;;;;5049576;28;20217;-84
2021/12/23 00:25:57;;;;;;;29.38;20.88;;;-2.20;1.00;;;;;;5071116;28;20223;-84
2021/12/23 00:28:25;;;;;;;29.70;21.27;;;-2.20;1.00;;;;;;5043207;28;20281;-84
2021/12/23 00:30:52;;;;;;;30.05;22.05;;;-2.30;1.00;;;;;;5046387;28;20233;-83
2021/12/23 00:33:23;;;;;;;27.17;21.40;;;-2.30;1.00;;;;;;5043477;28;20228;-82
2021/12/23 00:35:50;;;;;;;29.45;21.52;;;-2.30;1.00;;;;;;5059219;28;20280;-82
2021/12/23 00:38:22;;;;;;;33.08;22.23;;;-2.30;1.00;;;;;;5067227;28;20241;-84
2021/12/23 00:40:49;;;;;;;27.98;22.38;;;-2.40;1.00;;;;;;5048724;28;20229;-83
2021/12/23 00:43:16;;;;;;;29.38;22.55;;;-2.40;1.00;;;;;;5049704;28;20717;-83
2021/12/23 00:45:43;;;;;;;31.42;22.17;;;-2.40;1.00;;;;;;5060805;28;20399;-84
2021/12/23 00:48:10;;;;;;;35.60;23.13;;;-2.40;1.00;;;;;;5048574;28;20221;-85
2021/12/23 00:50:38;;;;;;;29.20;22.40;;;-2.40;1.00;;;;;;5044792;28;20226;-83
2021/12/23 00:53:08;;;;;;;27.85;22.50;;;-2.40;1.00;;;;;;5049270;28;20288;-83
2021/12/23 00:55:35;;;;;;;29.88;22.08;;;-2.40;1.00;;;;;;5055017;28;20226;-84
2021/12/23 00:58:02;;;;;;;33.92;21.45;;;-2.40;1.00;;;;;;5064197;28;20300;-83
2021/12/23 01:00:30;;;;;;;31.88;22.95;;;-2.40;1.00;;;;;;5051545;28;20246;-83
2021/12/23 01:02:59;;;;;;;28.33;22.20;;;-2.40;1.00;;;;;;5064979;28;20277;-83
2021/12/23 01:05:27;;;;;;;30.65;21.23;;;-2.40;1.00;;;;;;5067326;28;20227;-82
2021/12/23 01:07:55;;;;;;;30.30;20.83;;;-2.40;1.00;;;;;;5048320;28;20229;-84
2021/12/23 01:10:24;;;;;;;26.45;21.42;;;-2.40;1.00;;;;;;5051031;28;20337;-83
2021/12/23 01:12:57;;;;;;;30.83;22.17;;;-2.40;1.00;;;;;;5051645;28;20237;-83
2021/12/23 01:15:50;;;;;;;26.67;20.27;;;-2.40;1.00;;;;;;5050825;28;20225;-84
2021/12/23 01:18:32;;;;;;;29.98;22.33;;;-2.40;1.00;;;;;;5049213;28;20796;-84
2021/12/23 01:21:16;;;;;;;33.83;22.77;;;-2.40;1.00;;;;;;5045672;28;20346;-85
2021/12/23 01:23:46;;;;;;;28.92;21.05;;;-2.40;1.00;;;;;;5049933;28;20222;-85
2021/12/23 01:26:18;;;;;;;30.40;20.00;;;-2.40;1.00;;;;;;5043888;28;20222;-83
2021/12/23 01:28:48;;;;;;;28.42;20.73;;;-2.40;1.00;;;;;;5054684;28;20240;-83
2021/12/23 01:31:17;;;;;;;33.60;21.40;;;-2.30;1.00;;;;;;5054070;28;20716;-84
2021/12/23 01:33:44;;;;;;;28.20;21.00;;;-2.40;1.00;;;;;;5059006;28;20244;-84
2021/12/23 01:36:11;;;;;;;30.52;21.92;;;-2.40;1.00;;;;;;5064377;28;20839;-84
2021/12/23 01:38:39;;;;;;;34.55;23.25;;;-2.40;1.00;;;;;;5069677;28;20238;-85
2021/12/23 01:41:07;;;;;;;29.27;21.38;;;-2.40;1.00;;;;;;5068647;28;20234;-84
2021/12/23 01:43:35;;;;;;;29.02;21.58;;;-2.40;1.00;;;;;;5077162;28;20214;-84
2021/12/23 01:46:02;;;;;;;32.42;23.48;;;-2.40;1.00;;;;;;5089424;28;20285;-84
2021/12/23 01:48:29;;;;;;;32.35;21.63;;;-2.40;1.00;;;;;;5068392;28;20228;-85
2021/12/23 01:50:56;;;;;;;27.15;20.73;;;-2.40;1.00;;;;;;5066316;28;20225;-84
2021/12/23 01:53:23;;;;;;;30.42;22.85;;;-2.40;1.00;;;;;;5053603;28;20233;-85
2021/12/23 01:55:54;;;;;;;32.58;22.83;;;-2.50;1.00;;;;;;5057734;28;20280;-84
2021/12/23 01:58:23;;;;;;;28.40;22.13;;;-2.40;1.00;;;;;;5060729;28;20253;-82
2021/12/23 02:00:53;;;;;;;25.70;21.98;;;-2.50;1.00;;;;;;5075934;28;20251;-85
2021/12/23 02:03:21;;;;;;;26.08;21.63;;;-2.50;1.00;;;;;;5058834;28;21470;-83
2021/12/23 02:05:48;;;;;;;28.15;21.52;;;-2.50;1.00;;;;;;5052418;28;20285;-82
2021/12/23 02:08:15;;;;;;;34.72;22.13;;;-2.50;1.00;;;;;;5051501;28;20219;-83
2021/12/23 02:10:44;;;;;;;33.20;22.35;;;-2.50;1.00;;;;;;5056228;28;20297;-84
2021/12/23 02:13:11;;;;;;;29.83;21.83;;;-2.50;1.00;;;;;;5065865;28;20214;-83
2021/12/23 02:15:41;;;;;;;32.90;22.55;;;-2.50;1.00;;;;;;5056253;28;20241;-83
2021/12/23 02:18:08;;;;;;;31.23;21.25;;;-2.40;1.00;;;;;;5052165;28;20225;-83
2021/12/23 02:20:37;;;;;;;30.40;21.33;;;-2.40;1.00;;;;;;5045421;28;20229;-84
2021/12/23 02:23:04;;;;;;;30.90;22.45;;;-2.50;1.00;;;;;;5064008;28;20789;-84
2021/12/23 02:25:32;;;;;;;31.48;22.42;;;-2.50;1.00;;;;;;5048283;28;20776;-83
2021/12/23 02:28:04;;;;;;;31.13;22.90;;;-2.50;1.00;;;;;;5049945;28;20728;-83
2021/12/23 02:30:32;;;;;;;34.47;22.77;;;-2.50;1.00;;;;;;5049938;28;20226;-83
2021/12/23 02:32:59;;;;;;;28.17;22.30;;;-2.50;1.00;;;;;;5053650;28;20229;-83
2021/12/23 02:35:27;;;;;;;33.17;23.27;;;-2.50;1.00;;;;;;5046765;28;20236;-83
2021/12/23 02:37:55;;;;;;;28.83;22.05;;;-2.50;1.00;;;;;;5051503;28;21538;-83
2021/12/23 02:40:29;;;;;;;29.17;20.98;;;-2.50;1.00;;;;;;5051586;28;20222;-84
2021/12/23 02:42:56;;;;;;;30.75;21.55;;;-2.50;1.00;;;;;;5054585;28;20275;-84
2021/12/23 02:45:24;;;;;;;35.35;22.85;;;-2.40;1.00;;;;;;5049994;28;20226;-83
2021/12/23 02:47:51;;;;;;;31.15;21.42;;;-2.40;1.00;;;;;;5048112;28;20308;-82
2021/12/23 02:50:18;;;;;;;30.48;23.13;;;-2.40;1.00;;;;;;5045562;28;20230;-84
2021/12/23 02:52:45;;;;;;;29.90;22.33;;;-2.40;1.00;;;;;;5046109;28;20257;-86
2021/12/23 02:55:13;;;;;;;34.85;23.90;;;-2.40;1.00;;;;;;5056703;28;20295;-84
2021/12/23 02:57:41;;;;;;;35.33;22.70;;;-2.40;1.00;;;;;;5069170;28;20295;-83
2021/12/23 03:00:09;;;;;;;30.25;21.58;;;-2.40;1.00;;;;;;5074629;28;20221;-84
2021/12/23 03:02:38;;;;;;;30.45;22.50;;;-2.40;1.00;;;;;;5066442;28;20226;-83
2021/12/23 03:05:06;;;;;;;32.80;23.38;;;-2.30;1.00;;;;;;5048861;28;20284;-84
2021/12/23 03:07:33;;;;;;;30.27;22.05;;;-2.30;1.00;;;;;;5049033;28;20226;-83
2021/12/23 03:10:01;;;;;;;32.78;23.00;;;-2.30;1.00;;;;;;5063567;28;20231;-83
2021/12/23 03:12:29;;;;;;;30.35;22.75;;;-2.30;1.00;;;;;;5057115;28;20234;-83
2021/12/23 03:14:56;;;;;;;32.80;23.33;;;-2.20;1.00;;;;;;5048145;28;20222;-82
2021/12/23 03:17:23;;;;;;;32.72;23.42;;;-2.20;1.00;;;;;;5049638;28;20256;-82
2021/12/23 03:19:50;;;;;;;31.75;22.70;;;-2.20;1.00;;;;;;5046982;28;20229;-85
2021/12/23 03:22:18;;;;;;;33.42;22.83;;;-2.20;1.00;;;;;;5049982;28;20345;-84
2021/12/23 03:24:45;;;;;;;36.03;23.02;;;-2.20;1.00;;;;;;5046519;28;20304;-83
2021/12/23 03:27:12;;;;;;;27.73;21.27;;;-2.20;1.00;;;;;;5047129;28;20256;-83
2021/12/23 03:29:42;;;;;;;32.53;22.85;;;-2.20;1.00;;;;;;5047866;28;20316;-83
2021/12/23 03:32:09;;;;;;;31.60;23.80;;;-2.20;1.00;;;;;;5064717;28;20336;-83
2021/12/23 03:34:36;;;;;;;33.55;24.55;;;-2.20;1.00;;;;;;5066215;28;20240;-83
2021/12/23 03:37:03;;;;;;;33.55;23.65;;;-2.30;1.00;;;;;;5063335;28;20232;-83
2021/12/23 03:39:30;;;;;;;37.90;24.55;;;-2.30;1.00;;;;;;5060592;28;20229;-84
2021/12/23 03:41:57;;;;;;;31.92;24.05;;;-2.20;1.00;;;;;;5073787;28;20848;-84
2021/12/23 03:44:24;;;;;;;34.40;23.17;;;-2.20;1.00;;;;;;5076422;28;20289;-85
2021/12/23 03:46:53;;;;;;;29.35;21.58;;;-2.20;1.00;;;;;;5077267;28;20431;-85
2021/12/23 03:49:20;;;;;;;34.60;25.30;;;-2.10;1.00;;;;;;5078364;28;20262;-83
2021/12/23 03:51:47;;;;;;;30.25;21.60;;;-2.20;1.00;;;;;;5074295;28;20205;-85
2021/12/23 03:54:14;;;;;;;32.17;23.73;;;-2.10;1.00;;;;;;5078876;28;20213;-84
2021/12/23 03:56:41;;;;;;;32.00;23.88;;;-2.10;1.00;;;;;;5074096;28;20226;-83
2021/12/23 03:59:08;;;;;;;34.17;24.08;;;-2.20;1.00;;;;;;5063106;28;20228;-82
2021/12/23 04:01:37;;;;;;;36.38;24.65;;;-2.20;1.00;;;;;;5065800;28;20362;-83
2021/12/23 04:04:05;;;;;;;40.55;25.73;;;-2.20;1.00;;;;;;5046189;28;20297;-83
2021/12/23 04:06:32;;;;;;;33.15;24.45;;;-2.30;1.00;;;;;;5042084;28;20226;-84
2021/12/23 04:08:59;;;;;;;35.60;23.73;;;-2.30;1.00;;;;;;5037114;28;20249;-84
2021/12/23 04:11:28;;;;;;;34.88;23.55;;;-2.20;1.00;;;;;;5041148;28;20234;-83
2021/12/23 04:13:55;;;;;;;31.67;23.92;;;-2.30;1.00;;;;;;5043785;28;20222;-83
2021/12/23 04:16:22;;;;;;;38.70;24.42;;;-2.30;1.00;;;;;;5046159;28;20218;-83
2021/12/23 04:18:50;;;;;;;31.05;23.88;;;-2.30;1.00;;;;;;5036832;28;20234;-83
2021/12/23 04:21:19;;;;;;;31.17;23.75;;;-2.30;1.00;;;;;;5037524;28;20222;-84
2021/12/23 04:23:46;;;;;;;37.75;25.10;;;-2.30;1.00;;;;;;5057531;28;20228;-85
2021/12/23 04:26:13;;;;;;;38.50;25.60;;;-2.20;1.00;;;;;;5042152;28;20229;-84
2021/12/23 04:28:46;;;;;;;32.25;24.73;;;-2.20;1.00;;;;;;5047821;28;20229;-83
2021/12/23 04:31:15;;;;;;;37.50;25.40;;;-2.20;1.00;;;;;;5045196;28;20237;-83
2021/12/23 04:33:42;;;;;;;36.33;25.98;;;-2.20;1.00;;;;;;5052918;28;20305;-84
2021/12/23 04:36:09;;;;;;;32.00;24.55;;;-2.20;1.00;;;;;;5050799;28;20329;-84
2021/12/23 04:38:40;;;;;;;35.67;26.20;;;-2.10;1.00;;;;;;5044654;28;20275;-84
2021/12/23 04:41:07;;;;;;;33.38;23.30;;;-2.10;1.00;;;;;;5040434;28;21014;-84
2021/12/23 04:43:34;;;;;;;32.40;24.05;;;-2.00;1.00;;;;;;5048798;28;20287;-83
2021/12/23 04:46:01;;;;;;;31.55;25.05;;;-2.00;1.00;;;;;;5048084;28;20273;-84
2021/12/23 04:48:30;;;;;;;30.55;23.88;;;-2.00;1.00;;;;;;5058347;28;20226;-85
2021/12/23 04:50:58;;;;;;;36.40;25.15;;;-2.00;1.00;;;;;;5068008;28;20226;-84
2021/12/23 04:53:25;;;;;;;32.92;25.20;;;-2.00;1.00;;;;;;5047732;28;20225;-85
2021/12/23 04:55:55;;;;;;;37.08;26.02;;;-2.10;1.00;;;;;;5051840;28;20212;-83
2021/12/23 04:58:22;;;;;;;35.55;24.63;;;-2.00;1.00;;;;;;5044340;28;20252;-83
2021/12/23 05:00:51;;;;;;;39.17;27.10;;;-2.00;1.00;;;;;;5050268;28;20249;-84
2021/12/23 05:03:20;;;;;;;29.33;22.83;;;-2.00;1.00;;;;;;5051374;28;20340;-84
2021/12/23 05:05:48;;;;;;;35.92;26.50;;;-2.00;1.00;;;;;;5046421;28;20326;-84
2021/12/23 05:08:15;;;;;;;35.08;24.77;;;-1.90;1.00;;;;;;5054414;28;20275;-84
2021/12/23 05:10:43;;;;;;;37.80;26.23;;;-1.90;1.00;;;;;;5053067;28;20678;-84
2021/12/23 05:13:12;;;;;;;32.35;23.77;;;-1.90;1.00;;;;;;5054343;28;21094;-84
2021/12/23 05:15:40;;;;;;;34.47;26.23;;;-1.90;1.00;;;;;;5060398;28;20226;-84
2021/12/23 05:18:07;;;;;;;30.92;23.95;;;-1.90;1.00;;;;;;5050786;28;20351;-84
2021/12/23 05:20:35;;;;;;;38.95;24.25;;;-1.90;1.00;;;;;;5043122;28;20490;-84
2021/12/23 05:23:01;;;;;;;34.80;24.40;;;-1.90;1.00;;;;;;5054126;28;20209;-84
2021/12/23 05:25:29;;;;;;;39.65;25.05;;;-2.00;1.00;;;;;;5065570;28;20221;-83
2021/12/23 05:27:58;;;;;;;35.00;24.48;;;-1.90;1.00;;;;;;5057497;28;20260;-84
2021/12/23 05:30:27;;;;;;;37.30;25.35;;;-1.90;1.00;;;;;;5048414;28;20284;-84
2021/12/23 05:32:55;;;;;;;37.95;27.27;;;-1.90;1.00;;;;;;5050178;28;20231;-85
2021/12/23 05:35:23;;;;;;;36.75;24.20;;;-1.90;1.00;;;;;;5056059;28;20299;-84
2021/12/23 05:37:50;;;;;;;36.13;23.92;;;-1.80;1.00;;;;;;5054185;28;21039;-84
2021/12/23 05:40:19;;;;;;;34.28;24.63;;;-1.80;1.00;;;;;;5045922;28;20233;-84
2021/12/23 05:42:46;;;;;;;35.40;25.17;;;-1.70;1.00;;;;;;5056930;28;20688;-83
2021/12/23 05:45:14;;;;;;;40.03;26.90;;;-1.70;1.00;;;;;;5055403;28;21039;-83
2021/12/23 05:47:43;;;;;;;35.97;25.23;;;-1.60;1.00;;;;;;5074960;28;20284;-83
2021/12/23 05:50:12;;;;;;;33.85;24.60;;;-1.70;1.00;;;;;;5057198;28;20886;-83
2021/12/23 05:52:39;;;;;;;36.67;25.50;;;-1.60;1.00;;;;;;5050234;28;20667;-83
2021/12/23 05:55:08;;;;;;;35.08;24.60;;;-1.60;1.00;;;;;;5052387;28;20225;-83
2021/12/23 05:57:36;;;;;;;32.83;24.48;;;-1.60;1.00;;;;;;5048040;28;20277;-84
2021/12/23 06:00:06;;;;;;;39.97;25.98;;;-1.60;1.00;;;;;;5044965;28;20336;-85
2021/12/23 06:02:33;;;;;;;32.10;23.90;;;-1.50;1.00;;;;;;5044154;28;20230;-84
2021/12/23 06:05:01;;;;;;;37.65;26.02;;;-1.50;1.00;;;;;;5048740;28;20236;-84
2021/12/23 06:07:28;;;;;;;31.83;23.80;;;-1.50;1.00;;;;;;5047463;28;20322;-84
2021/12/23 06:09:55;;;;;;;33.10;24.08;;;-1.50;1.00;;;;;;5052000;28;20230;-85
2021/12/23 06:12:22;;;;;;;33.25;23.95;;;-1.50;1.00;;;;;;5051195;28;20244;-84
2021/12/23 06:14:49;;;;;;;33.72;24.05;;;-1.50;1.00;;;;;;5048533;28;20215;-84
2021/12/23 06:17:16;;;;;;;31.58;24.08;;;-1.40;1.00;;;;;;5054401;28;20225;-84
2021/12/23 06:19:43;;;;;;;34.70;24.23;;;-1.40;1.00;;;;;;5058582;28;20238;-85
2021/12/23 06:22:13;;;;;;;33.58;23.85;;;-1.40;1.00;;;;;;5056558;28;21122;-83
2021/12/23 06:24:41;;;;;;;32.45;22.52;;;-1.40;1.00;;;;;;5077555;28;20232;-84
2021/12/23 06:27:08;;;;;;;33.25;25.15;;;-1.40;1.00;;;;;;5073913;28;20252;-85
2021/12/23 06:29:35;;;;;;;28.67;22.98;;;-1.40;1.00;;;;;;5076726;28;20513;-85
2021/12/23 06:32:02;;;;;;;30.63;23.25;;;-1.40;1.00;;;;;;5072862;28;20225;-85
2021/12/23 06:34:29;;;;;;;30.88;22.73;;;-1.30;1.00;;;;;;5066526;28;20221;-84
2021/12/23 06:36:56;;;;;;;32.00;24.48;;;-1.30;1.00;;;;;;5050284;28;20225;-85
2021/12/23 06:39:25;;;;;;;32.55;22.75;;;-1.30;1.00;;;;;;5061463;28;20229;-84
2021/12/23 06:41:52;;;;;;;34.42;22.67;;;-1.20;1.00;;;;;;5081575;28;20233;-84
2021/12/23 06:44:20;;;;;;;31.90;22.13;;;-1.20;1.00;;;;;;5077881;28;20309;-85
2021/12/23 06:46:47;;;;;;;31.48;23.15;;;-1.10;1.00;;;;;;5066453;28;20222;-84
2021/12/23 06:49:15;;;;;;;35.25;24.95;;;-1.20;1.00;;;;;;5066193;28;20228;-83
2021/12/23 06:51:42;;;;;;;31.85;22.05;;;-1.20;1.00;;;;;;5060636;28;20226;-84
2021/12/23 06:54:10;;;;;;;32.40;23.65;;;-1.20;1.00;;;;;;5070510;28;20225;-83
2021/12/23 06:56:38;;;;;;;30.75;21.60;;;-1.30;1.00;;;;;;5067103;28;20224;-83
2021/12/23 06:59:06;;;;;;;34.83;24.50;;;-1.30;1.00;;;;;;5072411;28;20221;-85
2021/12/23 07:01:33;;;;;;;28.38;20.58;;;-1.30;1.00;;;;;;5071492;28;20225;-84
2021/12/23 07:04:06;;;;;;;33.83;24.02;;;-1.20;1.00;;;;;;5077737;28;20196;-84
2021/12/23 07:06:35;;;;;;;26.27;21.92;;;-1.20;1.00;;;;;;5071571;28;20217;-83
2021/12/23 07:09:03;;;;;;;32.25;23.48;;;-1.30;1.00;;;;;;5071475;28;20261;-83
2021/12/23 07:11:30;;;;;;;36.33;23.10;;;-1.20;1.00;;;;;;5067572;28;20248;-83
2021/12/23 07:13:59;;;;;;;34.13;24.92;;;-1.20;1.00;;;;;;5068734;28;20218;-82
2021/12/23 07:16:26;;;;;;;31.73;23.05;;;-1.20;1.00;;;;;;5052435;28;21618;-81
2021/12/23 07:18:54;;;;;;;28.42;22.70;;;-1.20;1.00;;;;;;5051121;28;20237;-82
2021/12/23 07:21:21;;;;;;;31.95;22.73;;;-1.20;1.00;;;;;;5038952;28;21014;-83
2021/12/23 07:23:48;;;;;;;33.47;23.08;;;-1.20;1.00;;;;;;5051127;28;20220;-82
2021/12/23 07:26:16;;;;;;;33.83;23.13;;;-1.10;1.00;;;;;;5043979;28;20601;-82
2021/12/23 07:28:43;;;;;;;27.98;20.92;;;-1.10;1.00;;;;;;5056099;28;20214;-83
2021/12/23 07:31:12;;;;;;;30.50;21.80;;;-1.10;1.00;;;;;;5056220;28;20222;-82
2021/12/23 07:33:39;;;;;;;32.55;23.63;;;-1.10;1.00;;;;;;5060314;28;20236;-82
2021/12/23 07:36:07;;;;;;;34.38;22.35;;;-1.10;1.00;;;;;;5061344;28;21951;-82
2021/12/23 07:38:35;;;;;;;29.80;19.92;;;-1.00;1.00;;;;;;5057781;28;20236;-81
2021/12/23 07:41:02;;;;;;;32.28;24.38;;;-1.00;1.00;;;;;;5053783;28;20302;-82
2021/12/23 07:43:44;;;;;;;32.83;23.73;;;-1.00;1.00;;;;;;5052204;28;20230;-82
2021/12/23 07:46:12;;;;;;;29.30;22.45;;;-1.10;1.00;;;;;;5048998;28;20225;-82
2021/12/23 07:48:39;;;;;;;34.05;22.70;;;-1.10;1.00;;;;;;5055497;28;20229;-82
2021/12/23 07:51:06;;;;;;;30.70;23.25;;;-1.10;1.00;;;;;;5047251;28;20233;-80
2021/12/23 07:53:33;;;;;;;31.13;23.10;;;-1.00;1.00;;;;;;5060366;28;20222;-82
2021/12/23 07:56:00;;;;;;;28.98;21.08;;;-1.00;1.00;;;;;;5050220;28;20225;-82
2021/12/23 07:58:27;;;;;;;28.77;21.55;;;-0.90;1.00;;;;;;5050976;28;20294;-81
2021/12/23 08:00:54;;;;;;;32.72;21.65;;;-0.90;1.00;;;;;;5053385;28;20787;-82
2021/12/23 08:03:22;;;;;;;26.17;21.05;;;-0.80;1.00;;;;;;5047856;28;20330;-82
2021/12/23 08:05:52;;;;;;;32.63;23.15;;;-0.70;1.00;;;;;;5048514;28;20241;-82
2021/12/23 08:08:19;;;;;;;33.17;23.70;;;-0.70;1.00;;;;;;5043020;28;20221;-80
2021/12/23 08:10:46;;;;;;;31.58;21.38;;;-0.70;1.00;;;;;;5046761;28;20238;-81
2021/12/23 08:13:13;;;;;;;30.35;22.50;;;-0.70;1.00;;;;;;5042785;28;20226;-81
2021/12/23 08:15:40;;;;;;;26.95;21.15;;;-0.80;1.00;;;;;;5044108;28;20222;-82
2021/12/23 08:18:07;;;;;;;30.38;21.08;;;-0.80;1.00;;;;;;5043575;28;20285;-81
2021/12/23 08:20:36;;;;;;;32.92;23.15;;;-0.80;1.00;;;;;;5050843;28;20248;-80
2021/12/23 08:23:03;;;;;;;31.65;22.25;;;-0.80;1.00;;;;;;5059081;28;21036;-80
2021/12/23 08:25:30;;;;;;;27.52;20.85;;;-0.80;1.00;;;;;;5053043;28;20226;-81
2021/12/23 08:27:57;;;;;;;29.70;22.17;;;-0.70;1.00;;;;;;5056748;28;20240;-82
2021/12/23 08:30:26;;;;;;;34.35;21.25;;;-0.70;1.00;;;;;;5062052;28;20386;-82
2021/12/23 08:32:54;;;;;;;31.67;22.58;;;-0.60;1.00;;;;;;5063123;28;20208;-81
2021/12/23 08:35:23;;;;;;;31.60;23.10;;;-0.60;1.00;;;;;;5042641;28;20363;-81
2021/12/23 08:37:53;;;;;;;26.58;21.13;;;-0.50;1.00;;;;;;5058891;28;20217;-80
2021/12/23 08:40:23;;;;;;;29.10;21.33;;;-0.50;1.00;;;;;;5047953;28;20343;-84
2021/12/23 08:42:50;;;;;;;28.98;21.75;;;-0.40;1.00;;;;;;5046051;28;20260;-83
2021/12/23 08:45:18;;;;;;;31.58;21.50;;;-0.40;1.00;;;;;;5047567;28;20222;-84
2021/12/23 08:47:46;;;;;;;26.95;20.73;;;-0.40;1.00;;;;;;5044412;28;20309;-82
2021/12/23 08:50:14;;;;;;;31.83;20.98;;;-0.40;1.00;;;;;;5054401;28;20248;-81
2021/12/23 08:52:42;;;;;;;29.63;20.88;;;-0.40;1.00;;;;;;5062233;28;20337;-82
2021/12/23 08:55:12;;;;;;;32.35;23.13;;;-0.40;1.00;;;;;;5053572;28;20972;-82
2021/12/23 08:57:39;;;;;;;36.50;23.52;;;-0.40;1.00;;;;;;5056565;28;20717;-82
2021/12/23 09:00:09;;;;;;;29.15;21.48;;;-0.30;1.00;;;;;;5056685;28;20250;-81
2021/12/23 09:02:36;;;;;;;27.05;19.95;;;-0.30;1.00;;;;;;5049473;28;20285;-81
2021/12/23 09:05:04;;;;;;;28.52;21.83;;;-0.30;1.00;;;;;;5054253;28;20424;-80
2021/12/23 09:07:31;;;;;;;33.03;21.00;;;-0.20;1.00;;;;;;5050553;28;20222;-81
2021/12/23 09:09:58;;;;;;;29.50;21.02;;;-0.20;1.00;;;;;;5055778;28;20234;-82
2021/12/23 09:12:27;;;;;;;27.50;20.05;;;-0.10;1.00;;;;;;5063284;28;20235;-81
2021/12/23 09:14:54;;;;;;;33.78;20.40;;;-0.20;1.00;;;;;;5065337;28;20263;-80
2021/12/23 09:17:21;;;;;;;28.48;19.90;;;-0.10;1.00;;;;;;5072009;28;21174;-81
2021/12/23 09:19:48;;;;;;;26.85;19.83;;;-0.10;1.00;;;;;;5081744;28;20240;-81
2021/12/23 09:22:16;;;;;;;33.47;21.98;;;-0.10;1.00;;;;;;5063852;28;20249;-81
2021/12/23 09:24:46;;;;;;;26.10;19.15;;;-0.10;1.00;;;;;;5072899;28;20229;-82
2021/12/23 09:27:24;;;;;;;28.67;21.30;;;0.00;1.00;;;;;;5091204;28;20213;-82
2021/12/23 09:32:52;;;;;;;25.08;18.13;;;0.00;1.00;;;;;;5073157;28;20233;-83
2021/12/23 09:35:23;;;;;;;30.60;21.17;;;0.00;1.00;;;;;;5071481;28;20303;-82
2021/12/23 09:37:50;;;;;;;31.02;20.50;;;0.00;1.00;;;;;;5066407;28;20229;-81
2021/12/23 09:40:19;;;;;;;29.38;19.38;;;0.00;1.00;;;;;;5054607;28;20250;-83
2021/12/23 09:42:48;;;;;;;26.13;18.17;;;0.00;1.00;;;;;;5056015;28;21991;-81
2021/12/23 09:45:19;;;;;;;31.15;20.90;;;0.00;1.00;;;;;;5060498;28;20245;-84
2021/12/23 09:47:48;;;;;;;29.67;20.25;;;0.10;1.00;;;;;;5051764;28;20228;-81
2021/12/23 09:50:18;;;;;;;28.15;18.73;;;0.10;1.00;;;;;;5047281;28;20228;-80
2021/12/23 09:52:48;;;;;;;26.67;19.08;;;0.20;1.00;;;;;;5051232;28;20222;-79
2021/12/23 09:55:17;;;;;;;25.17;18.52;;;0.20;1.00;;;;;;5055580;28;21061;-81
2021/12/23 09:57:49;;;;;;;27.15;19.42;;;0.30;1.00;;;;;;5048246;28;20217;-80
2021/12/23 10:00:24;;;;;;;27.48;20.33;;;0.40;1.00;;;;;;5057195;28;20232;-82
2021/12/23 10:02:53;;;;;;;31.20;19.02;;;0.50;1.00;;;;;;5059722;28;20234;-82
2021/12/23 10:05:24;;;;;;;26.00;18.73;;;0.50;1.00;;;;;;5063021;28;20229;-81
2021/12/23 10:07:53;;;;;;;25.50;19.13;;;0.60;1.00;;;;;;5053127;28;20234;-79
2021/12/23 10:10:26;;;;;;;26.52;19.50;;;0.50;1.00;;;;;;5055158;28;20230;-83
2021/12/23 10:27:14;;;;;;;24.88;17.98;;;0.60;1.00;;;;;;5063734;28;20259;-81
2021/12/23 10:38:19;;;;;;;24.70;18.00;;;0.70;1.00;;;;;;5043336;28;20224;-81
2021/12/23 10:40:51;;;;;;;22.48;17.40;;;0.70;1.00;;;;;;5053796;28;20327;-78
2021/12/23 10:43:25;;;;;;;25.05;17.40;;;0.70;1.00;;;;;;5063461;28;20225;-80
2021/12/23 10:45:55;;;;;;;27.50;19.67;;;0.70;1.00;;;;;;5043426;28;20217;-81
2021/12/23 10:48:26;;;;;;;26.13;19.42;;;0.70;1.00;;;;;;5054332;28;20233;-79
2021/12/23 10:51:23;;;;;;;25.17;18.35;;;0.70;1.00;;;;;;5043034;28;20309;-81
2021/12/23 10:59:27;;;;;;;23.60;17.65;;;0.70;1.00;;;;;;5041909;28;20248;-80
2021/12/23 11:02:16;;;;;;;29.45;19.20;;;0.70;1.00;;;;;;5045533;28;20217;-81
2021/12/23 11:05:03;;;;;;;25.40;17.77;;;0.80;1.00;;;;;;5043439;28;21061;-82
2021/12/23 11:07:57;;;;;;;21.63;17.38;;;0.80;1.00;;;;;;5063451;28;20244;-81
2021/12/23 11:10:54;;;;;;;29.23;19.67;;;0.80;1.00;;;;;;5055227;28;20794;-81
2021/12/23 11:36:35;;;;;;;23.60;16.65;;;1.20;1.00;;;;;;5060341;28;20244;-85
2021/12/23 11:41:49;;;;;;;20.33;17.25;;;1.40;1.00;;;;;;5618943;22;20251;-85
2021/12/23 11:44:20;;;;;;;23.02;16.98;;;1.40;1.00;;;;;;5039840;28;20276;-83
2021/12/23 11:46:51;;;;;;;22.88;16.58;;;1.40;1.00;;;;;;5037961;28;20221;-82
2021/12/23 11:49:19;;;;;;;19.60;16.25;;;1.40;1.00;;;;;;5052154;28;20223;-80
2021/12/23 11:51:53;;;;;;;22.20;17.00;;;1.30;1.00;;;;;;5066838;28;21157;-84
2021/12/23 11:54:25;;;;;;;23.00;16.88;;;1.20;1.00;;;;;;5066890;28;20255;-80
2021/12/23 11:57:06;;;;;;;23.45;17.40;;;1.30;1.00;;;;;;5052969;28;20244;-87
2021/12/23 11:59:41;;;;;;;19.60;15.85;;;1.40;1.00;;;;;;5075544;28;20309;-86
2021/12/23 12:02:18;;;;;;;24.25;18.25;;;1.40;1.00;;;;;;5061906;28;20209;-83
2021/12/23 12:04:46;;;;;;;24.10;16.10;;;1.60;1.00;;;;;;5063382;28;20252;-80
2021/12/23 12:07:16;;;;;;;24.85;16.23;;;1.80;1.00;;;;;;5063909;27;20265;-86
2021/12/23 12:09:56;;;;;;;24.60;16.42;;;2.10;1.00;;;;;;5073563;27;20290;-84
2021/12/23 12:12:31;;;;;;;21.75;15.57;;;2.20;1.00;;;;;;5047146;28;20219;-83
2021/12/23 12:15:00;;;;;;;26.13;16.75;;;2.30;1.00;;;;;;5070917;27;20625;-85
2021/12/23 12:17:41;;;;;;;20.13;15.93;;;2.60;1.00;;;;;;5064096;28;20226;-84
2021/12/23 12:20:15;;;;;;;21.75;15.93;;;2.80;1.00;;;;;;5046215;28;20245;-85
2021/12/23 12:23:11;;;;;;;21.15;15.88;;;2.80;1.00;;;;;;5063106;28;20217;-83
2021/12/23 12:26:11;;;;;;;20.58;15.38;;;2.70;1.00;;;;;;5060966;28;20276;-84
2021/12/23 12:28:45;;;;;;;22.23;15.55;;;2.70;1.00;;;;;;5063394;28;20225;-86
2021/12/23 12:31:16;;;;;;;17.92;14.02;;;2.60;1.00;;;;;;5067868;28;20225;-86
2021/12/23 12:33:59;;;;;;;21.02;15.55;;;2.50;1.00;;;;;;5066823;28;20225;-86
2021/12/23 12:36:27;;;;;;;19.90;15.40;;;2.60;1.00;;;;;;5052367;28;20237;-86
2021/12/23 12:38:57;;;;;;;19.23;14.77;;;2.50;1.00;;;;;;5044445;28;20226;-86
2021/12/23 12:41:31;;;;;;;18.05;15.43;;;2.40;1.00;;;;;;5044202;28;20237;-84
2021/12/23 12:44:07;;;;;;;17.77;15.73;;;2.30;1.00;;;;;;5077190;27;20221;-84
2021/12/23 12:46:58;;;;;;;18.00;15.60;;;2.40;1.00;;;;;;5045263;28;20228;-86
2021/12/23 12:49:28;;;;;;;17.45;14.35;;;2.40;1.00;;;;;;5054711;28;20225;-85
2021/12/23 12:52:06;;;;;;;21.10;15.18;;;2.40;1.00;;;;;;5036528;28;20226;-84
2021/12/23 12:54:34;;;;;;;20.63;14.40;;;2.50;1.00;;;;;;5027849;28;20326;-83
2021/12/23 12:57:05;;;;;;;17.67;14.98;;;2.50;1.00;;;;;;5049657;28;20225;-86
2021/12/23 12:59:37;;;;;;;17.70;15.23;;;2.40;1.00;;;;;;5049981;28;20221;-82
2021/12/23 13:02:24;;;;;;;16.45;13.50;;;2.20;1.00;;;;;;5052505;28;20249;-82
2021/12/23 13:04:57;;;;;;;15.52;13.82;;;2.10;1.00;;;;;;5056313;28;20209;-82
2021/12/23 13:07:28;;;;;;;19.50;13.95;;;2.00;1.00;;;;;;5048972;28;20229;-83
2021/12/23 13:10:01;;;;;;;23.02;16.27;;;1.90;1.00;;;;;;5056881;28;21044;-83
2021/12/23 13:12:33;;;;;;;26.55;13.88;;;2.00;1.00;;;;;;5031092;28;20241;-83
2021/12/23 13:15:19;;;;;;;18.10;14.75;;;2.00;1.00;;;;;;5056492;28;21154;-84
2021/12/23 13:17:55;;;;;;;18.90;13.93;;;2.10;1.00;;;;;;5049693;28;20724;-82
2021/12/23 13:20:50;;;;;;;27.20;17.05;;;2.10;1.00;;;;;;5055025;28;20315;-82
2021/12/23 13:23:21;;;;;;;20.00;15.00;;;2.20;1.00;;;;;;5038591;28;20307;-82
2021/12/23 13:25:56;;;;;;;18.60;14.80;;;2.20;1.00;;;;;;5058134;28;20217;-84
2021/12/23 13:28:30;;;;;;;19.20;14.43;;;2.30;1.00;;;;;;5070399;27;20236;-83
2021/12/23 13:30:59;;;;;;;16.25;13.98;;;2.20;1.00;;;;;;5060634;28;20360;-83
2021/12/23 13:33:27;;;;;;;21.05;16.52;;;2.10;1.00;;;;;;5057215;28;20222;-84
2021/12/23 13:35:54;;;;;;;19.23;14.52;;;2.10;1.00;;;;;;5042162;28;21058;-82
2021/12/23 13:38:33;;;;;;;22.00;17.02;;;2.10;1.00;;;;;;5059749;28;20456;-84
2021/12/23 13:41:21;;;;;;;26.45;18.30;;;2.10;1.00;;;;;;5058438;28;20260;-82
2021/12/23 13:43:48;;;;;;;21.48;16.73;;;2.20;1.00;;;;;;5053351;28;20226;-82
2021/12/23 13:46:17;;;;;;;21.50;16.60;;;2.20;1.00;;;;;;5057095;28;20221;-84
2021/12/23 13:48:50;;;;;;;21.02;15.68;;;2.30;1.00;;;;;;5054077;28;20270;-82
2021/12/23 13:51:20;;;;;;;22.80;15.25;;;2.40;1.00;;;;;;5039120;28;20993;-83
2021/12/23 13:53:47;;;;;;;22.83;15.95;;;2.40;1.00;;;;;;5054070;28;20328;-82